Weather at Finca Cuchuy Airport

Public forecast

Using degrees Celsius for public forecast. Weather courtesy of forecast.io.

Closest aviation weather report (METAR) to Finca Cuchuy Airport

Report is more than 6 hours old.

Closest report is General Enrique Mosconi Airport, 25.6 nm (47.3 km) N. Retrieved 2021/10/14 01:30 UTC (8 days ago):

SAST 140130Z 18024G32KT 9999 SCT060 28/18 Q1003

Closest aviation forecast (TAF) to Finca Cuchuy Airport

Forecast is more than 6 hours old.

Closest forecast is Yacuiba Airport, 64.9 nm (120.2 km) N. Retrieved 2021/10/21 06:00 UTC (9 hours ago):

TAF SLYA 210400Z 2106/2206 00000KT 9999 NSC TX33/2119Z TN18/2111Z BECMG 2114/2116 06010KT FEW023 BECMG 2122/2200 00000KT